createdAt,value
2023-03-30T00:00:20.866Z,65.29
2023-03-30T00:02:50.841Z,65.61
2023-03-30T00:05:18.561Z,65.45
2023-03-30T00:07:45.876Z,64.84
2023-03-30T00:10:14.684Z,65.33
2023-03-30T00:12:43.539Z,64.98
2023-03-30T00:15:12.289Z,65.54
2023-03-30T00:17:39.333Z,65.81
2023-03-30T00:20:11.640Z,65.27
2023-03-30T00:22:42.924Z,65.43
2023-03-30T00:25:12.384Z,65.47
2023-03-30T00:27:40.114Z,65.59
2023-03-30T00:30:13.374Z,66.18
2023-03-30T00:32:40.076Z,65.96
2023-03-30T00:35:07.104Z,64.95
2023-03-30T00:37:37.339Z,66.55
2023-03-30T00:40:10.073Z,62.98
2023-03-30T00:42:37.638Z,60.79
2023-03-30T00:45:26.801Z,59.07
2023-03-30T00:47:56.453Z,58.17
2023-03-30T00:50:27.459Z,56.88
2023-03-30T00:52:58.789Z,55.57
2023-03-30T00:55:28.962Z,54.82
2023-03-30T00:57:56.428Z,54.36
2023-03-30T01:00:23.873Z,54.16
2023-03-30T01:02:59.148Z,54.08
2023-03-30T01:05:28.395Z,54.31
2023-03-30T01:07:58.098Z,54.81
2023-03-30T01:10:25.449Z,56.44
2023-03-30T01:12:52.312Z,56.23
2023-03-30T01:15:19.078Z,57.35
2023-03-30T01:18:06.933Z,59.89
2023-03-30T01:20:40.437Z,60.17
2023-03-30T01:23:46.996Z,62.64
2023-03-30T01:26:44.588Z,64.83
2023-03-30T01:29:26.233Z,64.13
2023-03-30T01:32:09.633Z,66.39
2023-03-30T01:34:54.613Z,67.35
2023-03-30T01:38:20.975Z,69.41
2023-03-30T01:41:02.629Z,70.46
2023-03-30T01:44:01.301Z,72.06
2023-03-30T01:46:41.991Z,73.45
2023-03-30T01:49:20.427Z,74.31
2023-03-30T01:52:02.695Z,74.44
2023-03-30T01:54:39.099Z,74.51
2023-03-30T01:57:29.471Z,74.80
2023-03-30T02:00:01.369Z,74.33
2023-03-30T02:02:32.782Z,74.55
2023-03-30T02:05:01.792Z,75.61
2023-03-30T02:07:32.177Z,75.98
2023-03-30T02:10:03.273Z,76.33
2023-03-30T02:12:31.553Z,76.46
2023-03-30T02:15:03.265Z,76.90
2023-03-30T02:17:30.825Z,77.04
2023-03-30T02:19:58.909Z,77.95
2023-03-30T02:22:27.200Z,78.11
2023-03-30T02:24:56.159Z,78.76
2023-03-30T02:27:23.715Z,78.98
2023-03-30T02:29:50.974Z,79.70
2023-03-30T02:32:21.125Z,80.96
2023-03-30T02:35:08.887Z,81.49
2023-03-30T02:38:04.037Z,81.42
2023-03-30T02:40:41.936Z,82.04
2023-03-30T02:43:23.006Z,81.95
2023-03-30T02:46:07.408Z,81.67
2023-03-30T02:48:49.427Z,82.27
2023-03-30T02:51:33.496Z,82.29
2023-03-30T02:54:21.279Z,82.30
2023-03-30T02:57:03.264Z,82.07
2023-03-30T02:59:55.968Z,82.23
2023-03-30T03:02:29.929Z,82.21
2023-03-30T03:04:56.781Z,81.97
2023-03-30T03:07:25.541Z,82.30
2023-03-30T03:09:52.268Z,82.34
2023-03-30T03:12:18.797Z,82.23
2023-03-30T03:14:45.467Z,82.22
2023-03-30T03:17:13.692Z,81.91
2023-03-30T03:19:40.450Z,82.23
2023-03-30T03:22:06.951Z,82.46
2023-03-30T03:24:34.164Z,82.26
2023-03-30T03:27:01.008Z,82.16
2023-03-30T03:29:27.726Z,82.87
2023-03-30T03:31:54.299Z,83.40
2023-03-30T03:34:20.790Z,83.59
2023-03-30T03:36:47.242Z,83.53
2023-03-30T03:39:14.155Z,83.06
2023-03-30T03:41:40.699Z,83.36
2023-03-30T03:44:07.372Z,82.08
2023-03-30T03:46:33.967Z,82.88
2023-03-30T03:49:00.547Z,83.23
2023-03-30T03:51:29.224Z,81.84
2023-03-30T03:53:58.948Z,80.27
2023-03-30T03:56:26.813Z,77.37
2023-03-30T03:58:53.845Z,77.14
2023-03-30T04:01:20.403Z,78.62
2023-03-30T04:03:46.870Z,79.69
2023-03-30T04:06:13.694Z,79.62
2023-03-30T04:08:40.148Z,80.51
2023-03-30T04:11:09.145Z,79.73
2023-03-30T04:13:36.025Z,80.18
2023-03-30T04:16:02.564Z,79.48
2023-03-30T04:18:33.582Z,79.06
2023-03-30T04:21:03.115Z,79.25
2023-03-30T04:23:33.890Z,79.26
2023-03-30T04:26:05.092Z,78.98
2023-03-30T04:28:33.073Z,79.49
2023-03-30T04:31:00.880Z,79.86
2023-03-30T04:33:28.127Z,78.44
2023-03-30T04:35:54.684Z,78.78
2023-03-30T04:38:24.109Z,78.63
2023-03-30T04:40:52.131Z,78.89
2023-03-30T04:43:22.931Z,78.67
2023-03-30T04:45:51.456Z,77.69
2023-03-30T04:48:19.640Z,77.60
2023-03-30T04:50:47.895Z,77.57
2023-03-30T04:53:17.382Z,77.53
2023-03-30T04:55:48.925Z,77.51
2023-03-30T04:58:15.725Z,77.45
2023-03-30T05:00:42.519Z,77.30
2023-03-30T05:03:09.280Z,77.76
2023-03-30T05:05:36.661Z,77.50
2023-03-30T05:08:03.324Z,77.73
2023-03-30T05:10:29.848Z,77.33
2023-03-30T05:12:56.822Z,77.85
2023-03-30T05:15:23.390Z,77.77
2023-03-30T05:17:49.991Z,78.64
2023-03-30T05:20:17.047Z,79.00
2023-03-30T05:22:44.267Z,78.31
2023-03-30T05:25:10.807Z,78.37
2023-03-30T05:27:37.285Z,77.61
2023-03-30T05:30:04.153Z,77.47
2023-03-30T05:32:30.680Z,78.79
2023-03-30T05:34:57.599Z,79.38
2023-03-30T05:37:24.165Z,79.22
2023-03-30T05:39:50.714Z,79.22
2023-03-30T05:42:17.251Z,80.06
2023-03-30T05:44:43.723Z,80.80
2023-03-30T05:47:10.423Z,80.86
2023-03-30T05:49:36.919Z,81.36
2023-03-30T05:52:03.675Z,81.69
2023-03-30T05:54:30.217Z,81.49
2023-03-30T05:56:56.795Z,81.05
2023-03-30T05:59:23.933Z,80.67
2023-03-30T06:01:50.459Z,80.12
2023-03-30T06:04:17.477Z,79.75
2023-03-30T06:06:44.147Z,80.26
2023-03-30T06:09:11.222Z,79.62
2023-03-30T06:11:37.773Z,78.70
2023-03-30T06:14:04.468Z,78.20
2023-03-30T06:16:31.942Z,79.88
2023-03-30T06:18:58.563Z,78.60
2023-03-30T06:21:25.294Z,80.81
2023-03-30T06:23:51.879Z,82.48
2023-03-30T06:26:18.930Z,78.55
2023-03-30T06:28:45.448Z,78.42
2023-03-30T06:31:12.443Z,78.20
2023-03-30T06:33:41.658Z,78.10
2023-03-30T06:36:14.070Z,77.82
2023-03-30T06:38:43.070Z,78.13
2023-03-30T06:41:12.696Z,75.31
2023-03-30T06:43:40.006Z,75.23
2023-03-30T06:46:07.258Z,75.82
2023-03-30T06:48:34.389Z,74.82
2023-03-30T06:51:00.945Z,76.40
2023-03-30T06:53:28.277Z,75.09
2023-03-30T06:55:57.106Z,73.79
2023-03-30T06:58:25.706Z,75.29
2023-03-30T07:00:52.365Z,72.91
2023-03-30T07:03:19.749Z,75.05
2023-03-30T07:05:50.831Z,77.98
2023-03-30T07:08:18.840Z,77.27
2023-03-30T07:10:47.381Z,78.59
2023-03-30T07:13:14.081Z,75.13
2023-03-30T07:15:40.835Z,77.68
2023-03-30T07:18:07.374Z,78.24
2023-03-30T07:20:33.944Z,75.73
2023-03-30T07:23:01.522Z,76.61
2023-03-30T07:25:28.229Z,75.31
2023-03-30T07:27:54.678Z,74.17
2023-03-30T07:30:22.824Z,71.83
2023-03-30T07:32:50.998Z,72.13
2023-03-30T07:35:18.511Z,76.19
2023-03-30T07:37:45.251Z,78.07
2023-03-30T07:40:12.786Z,78.27
2023-03-30T07:42:39.611Z,75.90
2023-03-30T07:45:06.694Z,72.11
2023-03-30T07:47:33.173Z,70.51
2023-03-30T07:49:59.665Z,70.02
2023-03-30T07:52:26.408Z,67.88
2023-03-30T07:54:54.732Z,68.11
2023-03-30T07:57:22.104Z,69.98
2023-03-30T07:59:49.203Z,69.94
2023-03-30T08:02:16.354Z,69.36
2023-03-30T08:04:44.603Z,69.24
2023-03-30T08:07:11.963Z,71.85
2023-03-30T08:09:38.641Z,71.19
2023-03-30T08:12:06.105Z,70.59
2023-03-30T08:14:32.725Z,69.55
2023-03-30T08:16:59.320Z,70.53
2023-03-30T08:19:28.421Z,70.31
2023-03-30T08:21:56.981Z,71.42
2023-03-30T08:24:23.914Z,71.90
2023-03-30T08:26:50.787Z,69.60
2023-03-30T08:29:18.808Z,68.73
2023-03-30T08:31:45.742Z,68.36
2023-03-30T08:34:12.714Z,67.29
2023-03-30T08:36:39.527Z,66.03
2023-03-30T08:39:06.039Z,67.01
2023-03-30T08:41:47.417Z,72.13
2023-03-30T08:44:21.138Z,78.75
2023-03-30T08:46:48.588Z,82.55
2023-03-30T08:49:19.088Z,85.69
2023-03-30T08:51:48.936Z,87.44
2023-03-30T08:54:18.146Z,87.78
2023-03-30T08:56:59.613Z,89.67
2023-03-30T08:59:36.146Z,90.56
2023-03-30T09:02:14.543Z,91.42
2023-03-30T09:05:07.075Z,92.77
2023-03-30T09:07:36.302Z,92.99
2023-03-30T09:10:04.278Z,94.58
2023-03-30T09:12:48.567Z,97.11
2023-03-30T09:15:31.745Z,99.03
2023-03-30T09:18:01.624Z,100.00
2023-03-30T09:20:30.623Z,96.98
2023-03-30T09:23:02.148Z,93.88
2023-03-30T09:25:37.417Z,93.08
2023-03-30T09:28:18.544Z,95.15
2023-03-30T09:31:03.775Z,99.53
2023-03-30T09:33:47.120Z,99.77
2023-03-30T09:36:16.898Z,99.92
2023-03-30T09:38:45.287Z,99.18
2023-03-30T09:41:42.700Z,98.54
2023-03-30T09:44:22.225Z,98.83
2023-03-30T09:46:51.529Z,98.15
2023-03-30T09:49:18.102Z,98.39
2023-03-30T09:52:03.592Z,98.94
2023-03-30T09:54:41.329Z,99.22
2023-03-30T09:57:27.601Z,100.00
2023-03-30T09:59:55.901Z,98.39
2023-03-30T10:02:25.122Z,98.43
2023-03-30T10:04:52.530Z,98.23
2023-03-30T10:07:43.082Z,97.84
2023-03-30T10:10:16.973Z,97.88
2023-03-30T10:12:44.890Z,98.45
2023-03-30T10:15:23.852Z,100.00
2023-03-30T10:17:56.295Z,100.00
2023-03-30T10:20:39.334Z,98.57
2023-03-30T10:23:15.917Z,99.14
2023-03-30T10:25:43.567Z,97.96
2023-03-30T10:28:21.810Z,99.71
2023-03-30T10:31:07.911Z,99.78
2023-03-30T10:33:40.795Z,100.00
2023-03-30T10:36:08.243Z,99.69
2023-03-30T10:38:36.315Z,97.41
2023-03-30T10:41:13.759Z,98.38
2023-03-30T10:43:42.121Z,96.25
2023-03-30T10:46:24.545Z,99.49
2023-03-30T10:49:04.758Z,98.95
2023-03-30T10:51:46.322Z,96.66
2023-03-30T10:54:44.908Z,97.62
2023-03-30T10:57:14.762Z,97.17
2023-03-30T11:00:13.013Z,98.96
2023-03-30T11:02:46.324Z,98.84
2023-03-30T11:05:19.816Z,99.32
2023-03-30T11:08:02.605Z,98.71
2023-03-30T11:10:32.663Z,99.39
2023-03-30T11:13:01.327Z,98.29
2023-03-30T11:15:41.038Z,97.00
2023-03-30T11:18:20.509Z,93.37
2023-03-30T11:21:05.246Z,86.78
2023-03-30T11:23:59.915Z,85.05
2023-03-30T11:26:39.226Z,84.35
2023-03-30T11:29:22.642Z,83.33
2023-03-30T11:31:59.721Z,86.27
2023-03-30T11:34:37.132Z,83.37
2023-03-30T11:37:18.026Z,84.63
2023-03-30T11:39:51.870Z,82.04
2023-03-30T11:42:29.910Z,81.70
2023-03-30T11:44:57.102Z,83.22
2023-03-30T11:47:26.691Z,84.27
2023-03-30T11:50:08.098Z,85.97
2023-03-30T11:52:49.782Z,87.16
2023-03-30T11:55:37.304Z,87.88
2023-03-30T11:58:22.013Z,85.84
2023-03-30T12:00:59.766Z,83.61
2023-03-30T12:03:44.384Z,84.58
2023-03-30T12:06:11.307Z,84.79
2023-03-30T12:09:06.185Z,83.28
2023-03-30T12:11:39.169Z,80.15
2023-03-30T12:14:40.128Z,78.35
2023-03-30T12:17:25.738Z,77.08
2023-03-30T12:20:10.751Z,77.63
2023-03-30T12:22:40.030Z,74.86
2023-03-30T12:25:18.604Z,72.54
2023-03-30T12:28:00.136Z,71.16
2023-03-30T12:30:41.560Z,69.23
2023-03-30T12:33:31.289Z,67.56
2023-03-30T12:36:00.607Z,60.43
2023-03-30T12:38:41.111Z,59.55
2023-03-30T12:41:16.507Z,54.16
2023-03-30T12:43:55.018Z,51.63
2023-03-30T12:46:44.790Z,52.16
2023-03-30T12:49:31.309Z,51.97
2023-03-30T12:52:10.684Z,51.11
2023-03-30T12:55:03.336Z,51.50
2023-03-30T12:57:48.091Z,50.41
2023-03-30T13:00:52.387Z,51.88
2023-03-30T13:03:41.034Z,53.89
2023-03-30T13:06:38.316Z,54.12
2023-03-30T13:09:08.016Z,54.22
2023-03-30T13:11:45.936Z,53.73
2023-03-30T13:14:26.387Z,53.61
2023-03-30T13:16:53.243Z,51.52
2023-03-30T13:19:37.116Z,50.24
2023-03-30T13:22:12.649Z,50.16
2023-03-30T13:24:46.463Z,50.85
2023-03-30T13:27:18.868Z,48.26
2023-03-30T13:30:03.471Z,47.48
2023-03-30T13:32:53.022Z,45.68
2023-03-30T13:35:38.972Z,44.28
2023-03-30T13:38:19.366Z,43.18
2023-03-30T13:41:05.341Z,42.81
2023-03-30T13:43:50.175Z,43.67
2023-03-30T13:46:38.158Z,44.23
2023-03-30T13:49:41.952Z,42.42
2023-03-30T13:52:13.638Z,40.54
2023-03-30T13:54:41.766Z,41.85
2023-03-30T13:57:10.043Z,41.20
2023-03-30T13:59:41.286Z,39.73
2023-03-30T14:02:12.694Z,39.78
2023-03-30T14:04:39.250Z,38.98
2023-03-30T14:07:16.999Z,39.67
2023-03-30T14:09:44.652Z,37.50
2023-03-30T14:12:13.838Z,39.05
2023-03-30T14:14:46.655Z,37.73
2023-03-30T14:17:18.902Z,37.31
2023-03-30T14:20:26.722Z,38.16
2023-03-30T14:22:55.821Z,38.05
2023-03-30T14:25:40.796Z,38.06
2023-03-30T14:28:19.394Z,38.31
2023-03-30T14:31:03.070Z,36.74
2023-03-30T14:33:29.773Z,37.37
2023-03-30T14:35:58.391Z,37.81
2023-03-30T14:38:30.089Z,37.93
2023-03-30T14:40:57.933Z,38.17
2023-03-30T14:43:28.901Z,38.96
2023-03-30T14:45:58.420Z,38.65
2023-03-30T14:48:31.050Z,37.54
2023-03-30T14:50:57.751Z,37.57
2023-03-30T14:53:27.517Z,38.11
2023-03-30T14:55:57.659Z,38.15
2023-03-30T14:58:26.699Z,38.11
2023-03-30T15:00:58.501Z,37.26
2023-03-30T15:03:33.946Z,37.37
2023-03-30T15:06:02.849Z,37.30
2023-03-30T15:08:36.199Z,37.49
2023-03-30T15:11:09.124Z,37.66
2023-03-30T15:13:41.709Z,37.43
2023-03-30T15:16:12.199Z,38.37
2023-03-30T15:18:39.154Z,38.85
2023-03-30T15:21:09.294Z,39.35
2023-03-30T15:23:40.966Z,39.52
2023-03-30T15:26:08.857Z,39.70
2023-03-30T15:28:46.117Z,39.54
2023-03-30T15:31:14.586Z,40.22
2023-03-30T15:33:45.393Z,40.47
2023-03-30T15:36:13.551Z,40.66
2023-03-30T15:38:52.003Z,41.15
2023-03-30T15:41:22.932Z,41.66
2023-03-30T15:43:58.051Z,41.61
2023-03-30T15:46:27.820Z,41.91
2023-03-30T15:48:54.858Z,42.14
2023-03-30T15:51:37.976Z,44.81
2023-03-30T15:54:12.985Z,45.14
2023-03-30T15:57:01.417Z,45.27
2023-03-30T15:59:33.345Z,46.18
2023-03-30T16:02:18.187Z,47.11
2023-03-30T16:04:44.827Z,46.20
2023-03-30T16:07:20.059Z,47.18
2023-03-30T16:09:47.171Z,46.44
2023-03-30T16:12:23.735Z,45.06
2023-03-30T16:14:51.478Z,46.71
2023-03-30T16:17:18.040Z,46.10
2023-03-30T16:19:45.494Z,45.11
2023-03-30T16:22:13.794Z,45.88
2023-03-30T16:24:41.903Z,45.31
2023-03-30T16:27:11.478Z,44.25
2023-03-30T16:29:38.113Z,41.50
2023-03-30T16:32:05.060Z,41.64
2023-03-30T16:34:31.753Z,42.35
2023-03-30T16:36:58.271Z,42.67
2023-03-30T16:39:29.253Z,42.45
2023-03-30T16:41:56.524Z,42.39
2023-03-30T16:44:24.799Z,42.53
2023-03-30T16:46:52.166Z,44.41
2023-03-30T16:49:24.621Z,46.21
2023-03-30T16:51:54.423Z,46.00
2023-03-30T16:54:31.174Z,46.33
2023-03-30T16:56:59.516Z,47.23
2023-03-30T16:59:30.236Z,47.21
2023-03-30T17:01:57.292Z,46.59
2023-03-30T17:04:23.886Z,46.82
2023-03-30T17:06:50.541Z,46.59
2023-03-30T17:09:19.126Z,45.26
2023-03-30T17:11:47.465Z,44.02
2023-03-30T17:14:14.777Z,45.32
2023-03-30T17:16:41.451Z,43.98
2023-03-30T17:19:13.177Z,43.77
2023-03-30T17:21:42.778Z,43.96
2023-03-30T17:24:10.660Z,43.94
2023-03-30T17:26:37.297Z,44.13
2023-03-30T17:29:03.824Z,44.46
2023-03-30T17:31:30.616Z,44.52
2023-03-30T17:33:57.260Z,44.95
2023-03-30T17:36:25.793Z,45.44
2023-03-30T17:38:52.572Z,45.17
2023-03-30T17:41:19.681Z,45.58
2023-03-30T17:43:48.153Z,45.59
2023-03-30T17:46:18.359Z,45.68
2023-03-30T17:48:45.123Z,46.23
2023-03-30T17:51:11.721Z,46.71
2023-03-30T17:53:38.240Z,46.59
2023-03-30T17:56:05.129Z,47.15
2023-03-30T17:58:34.682Z,47.85
2023-03-30T18:01:04.334Z,48.79
2023-03-30T18:03:31.415Z,49.79
2023-03-30T18:06:00.235Z,51.09
2023-03-30T18:08:27.470Z,51.46
2023-03-30T18:10:56.578Z,52.63
2023-03-30T18:13:24.654Z,53.24
2023-03-30T18:15:54.713Z,53.33
2023-03-30T18:18:24.926Z,52.98
2023-03-30T18:20:54.262Z,53.29
2023-03-30T18:23:21.371Z,51.81
2023-03-30T18:25:48.581Z,50.81
2023-03-30T18:28:18.294Z,50.56
2023-03-30T18:30:44.998Z,49.59
2023-03-30T18:33:11.576Z,49.19
2023-03-30T18:35:38.818Z,49.34
2023-03-30T18:38:06.030Z,49.06
2023-03-30T18:40:38.041Z,49.26
2023-03-30T18:43:06.011Z,48.73
2023-03-30T18:45:41.184Z,48.73
2023-03-30T18:48:11.254Z,48.34
2023-03-30T18:50:45.670Z,48.73
2023-03-30T18:53:14.840Z,48.90
2023-03-30T18:55:44.351Z,48.54
2023-03-30T18:58:23.270Z,49.24
2023-03-30T19:00:51.709Z,49.06
2023-03-30T19:03:20.022Z,49.36
2023-03-30T19:05:47.310Z,49.43
2023-03-30T19:08:16.368Z,49.78
2023-03-30T19:10:44.934Z,51.50
2023-03-30T19:13:16.793Z,51.33
2023-03-30T19:15:44.627Z,51.67
2023-03-30T19:18:11.643Z,51.36
2023-03-30T19:20:41.147Z,50.30
2023-03-30T19:23:11.134Z,51.59
2023-03-30T19:25:37.780Z,53.42
2023-03-30T19:28:05.795Z,52.37
2023-03-30T19:30:36.701Z,51.97
2023-03-30T19:33:09.667Z,51.64
2023-03-30T19:35:36.541Z,52.38
2023-03-30T19:38:03.111Z,54.57
2023-03-30T19:40:29.659Z,54.44
2023-03-30T19:42:56.336Z,55.00
2023-03-30T19:45:23.849Z,53.68
2023-03-30T19:47:51.776Z,53.87
2023-03-30T19:50:22.315Z,55.05
2023-03-30T19:52:50.754Z,55.43
2023-03-30T19:55:19.371Z,56.23
2023-03-30T19:57:46.301Z,56.93
2023-03-30T20:00:15.994Z,57.53
2023-03-30T20:02:51.317Z,58.06
2023-03-30T20:05:19.039Z,57.97
2023-03-30T20:07:46.159Z,57.82
2023-03-30T20:10:16.630Z,57.00
2023-03-30T20:12:43.530Z,55.61
2023-03-30T20:15:11.258Z,55.51
2023-03-30T20:17:38.363Z,54.53
2023-03-30T20:20:09.085Z,57.02
2023-03-30T20:22:37.533Z,57.59
2023-03-30T20:25:07.481Z,59.58
2023-03-30T20:27:35.191Z,58.85
2023-03-30T20:30:02.809Z,58.28
2023-03-30T20:32:29.332Z,57.67
2023-03-30T20:34:55.873Z,57.14
2023-03-30T20:37:22.697Z,56.48
2023-03-30T20:39:52.119Z,58.74
2023-03-30T20:42:26.025Z,57.61
2023-03-30T20:44:53.603Z,57.76
2023-03-30T20:47:23.533Z,58.38
2023-03-30T20:49:50.205Z,59.18
2023-03-30T20:52:16.993Z,56.21
2023-03-30T20:54:44.738Z,56.20
2023-03-30T20:57:11.680Z,56.20
2023-03-30T20:59:39.458Z,56.41
2023-03-30T21:02:06.149Z,58.56
2023-03-30T21:04:36.506Z,60.42
2023-03-30T21:07:03.164Z,58.13
2023-03-30T21:09:29.996Z,59.25
2023-03-30T21:11:56.449Z,61.88
2023-03-30T21:14:24.165Z,62.13
2023-03-30T21:16:50.926Z,62.90
2023-03-30T21:19:17.449Z,62.82
2023-03-30T21:21:44.081Z,63.24
2023-03-30T21:24:11.586Z,62.87
2023-03-30T21:26:38.318Z,63.20
2023-03-30T21:29:05.612Z,64.58
2023-03-30T21:31:32.378Z,64.95
2023-03-30T21:33:58.984Z,64.88
2023-03-30T21:36:25.643Z,65.22
2023-03-30T21:38:52.246Z,65.57
2023-03-30T21:41:21.387Z,65.78
2023-03-30T21:43:48.191Z,67.19
2023-03-30T21:46:17.342Z,65.22
2023-03-30T21:48:45.846Z,66.81
2023-03-30T21:51:16.909Z,66.35
2023-03-30T21:53:45.040Z,66.96
2023-03-30T21:56:12.621Z,66.73
2023-03-30T21:58:39.854Z,67.70
2023-03-30T22:01:12.482Z,68.55
2023-03-30T22:03:39.886Z,69.74
2023-03-30T22:06:08.712Z,70.19
2023-03-30T22:08:35.491Z,69.14
2023-03-30T22:11:05.991Z,69.34
2023-03-30T22:13:32.979Z,68.74
2023-03-30T22:16:03.689Z,68.07
2023-03-30T22:18:30.955Z,69.58
2023-03-30T22:21:02.445Z,67.20
2023-03-30T22:23:29.529Z,65.02
2023-03-30T22:25:56.365Z,66.18
2023-03-30T22:28:23.195Z,64.41
2023-03-30T22:30:49.725Z,64.41
2023-03-30T22:33:17.328Z,64.95
2023-03-30T22:35:46.099Z,65.53
2023-03-30T22:38:13.030Z,67.95
2023-03-30T22:40:41.899Z,67.87
2023-03-30T22:43:10.517Z,68.12
2023-03-30T22:45:37.914Z,68.61
2023-03-30T22:48:05.363Z,69.91
2023-03-30T22:50:33.899Z,71.92
2023-03-30T22:53:00.899Z,71.87
2023-03-30T22:55:27.464Z,71.67
2023-03-30T22:57:55.818Z,72.13
2023-03-30T23:00:22.954Z,72.48
2023-03-30T23:02:50.034Z,70.76
2023-03-30T23:05:20.923Z,70.57
2023-03-30T23:07:48.927Z,72.34
2023-03-30T23:10:19.417Z,74.45
2023-03-30T23:12:46.641Z,73.30
2023-03-30T23:15:14.257Z,73.63
2023-03-30T23:17:41.429Z,72.58
2023-03-30T23:20:10.391Z,73.43
2023-03-30T23:22:38.216Z,73.78
2023-03-30T23:25:06.312Z,73.62
2023-03-30T23:27:33.605Z,73.77
2023-03-30T23:30:00.256Z,73.58
2023-03-30T23:32:27.250Z,74.98
2023-03-30T23:34:53.837Z,77.10
2023-03-30T23:37:21.963Z,76.38
2023-03-30T23:39:48.946Z,76.40
2023-03-30T23:42:16.371Z,74.94
2023-03-30T23:44:42.880Z,75.44
2023-03-30T23:47:09.380Z,75.30
2023-03-30T23:49:35.963Z,78.74
2023-03-30T23:52:02.474Z,82.22
2023-03-30T23:54:31.749Z,83.13
2023-03-30T23:56:58.476Z,83.74
2023-03-30T23:59:25.330Z,79.72
